createdAt,value
2022-10-26T00:01:15.726Z,10.35
2022-10-26T00:03:44.134Z,17.38
2022-10-26T00:06:17.028Z,11.00
2022-10-26T00:08:44.625Z,8.45
2022-10-26T00:11:12.410Z,12.48
2022-10-26T00:13:40.753Z,10.77
2022-10-26T00:16:09.930Z,8.73
2022-10-26T00:18:36.812Z,8.73
2022-10-26T00:21:07.630Z,9.40
2022-10-26T00:23:34.615Z,9.30
2022-10-26T00:26:01.636Z,11.35
2022-10-26T00:28:28.628Z,14.50
2022-10-26T00:30:55.886Z,9.65
2022-10-26T00:33:22.741Z,8.88
2022-10-26T00:35:53.859Z,5.85
2022-10-26T00:38:21.000Z,10.30
2022-10-26T00:40:48.192Z,7.75
2022-10-26T00:43:36.131Z,14.63
2022-10-26T00:46:06.860Z,15.43
2022-10-26T00:48:42.088Z,10.15
2022-10-26T00:51:15.755Z,9.02
2022-10-26T00:53:43.270Z,12.02
2022-10-26T00:56:10.371Z,9.18
2022-10-26T00:58:38.830Z,8.18
2022-10-26T01:01:05.737Z,7.63
2022-10-26T01:03:34.685Z,7.53
2022-10-26T01:06:04.361Z,10.10
2022-10-26T01:08:31.818Z,9.07
2022-10-26T01:11:00.433Z,12.93
2022-10-26T01:13:31.077Z,6.82
2022-10-26T01:16:29.162Z,6.47
2022-10-26T01:19:23.481Z,11.48
2022-10-26T01:22:00.858Z,9.93
2022-10-26T01:24:36.535Z,9.05
2022-10-26T01:27:25.299Z,10.35
2022-10-26T01:30:10.463Z,10.40
2022-10-26T01:33:01.334Z,7.75
2022-10-26T01:35:37.255Z,15.35
2022-10-26T01:38:36.486Z,9.65
2022-10-26T01:41:28.289Z,9.52
2022-10-26T01:44:43.042Z,9.65
2022-10-26T01:47:13.636Z,12.10
2022-10-26T01:49:48.496Z,10.40
2022-10-26T01:52:15.465Z,12.77
2022-10-26T01:54:42.320Z,11.80
2022-10-26T01:57:12.148Z,13.60
2022-10-26T02:00:03.385Z,10.63
2022-10-26T02:03:04.548Z,14.15
2022-10-26T02:05:34.082Z,23.40
2022-10-26T02:08:28.890Z,11.82
2022-10-26T02:11:10.934Z,11.32
2022-10-26T02:14:18.473Z,13.07
2022-10-26T02:16:45.333Z,13.25
2022-10-26T02:19:15.056Z,24.27
2022-10-26T02:21:47.664Z,14.27
2022-10-26T02:24:16.901Z,19.17
2022-10-26T02:26:47.682Z,12.05
2022-10-26T02:29:19.433Z,13.90
2022-10-26T02:31:50.304Z,18.40
2022-10-26T02:34:22.753Z,13.38
2022-10-26T02:36:53.818Z,15.25
2022-10-26T02:39:22.050Z,11.45
2022-10-26T02:41:50.056Z,12.15
2022-10-26T02:44:23.875Z,11.77
2022-10-26T02:46:52.063Z,16.33
2022-10-26T02:49:19.605Z,13.85
2022-10-26T02:51:50.628Z,12.25
2022-10-26T02:55:01.023Z,11.73
2022-10-26T02:57:42.400Z,13.73
2022-10-26T03:00:11.891Z,14.45
2022-10-26T03:02:38.966Z,12.88
2022-10-26T03:05:22.927Z,11.57
2022-10-26T03:26:03.839Z,14.90
2022-10-26T03:28:31.440Z,11.40
2022-10-26T03:30:58.208Z,16.58
2022-10-26T03:33:27.096Z,16.23
2022-10-26T03:35:57.989Z,14.68
2022-10-26T03:38:25.085Z,14.40
2022-10-26T03:40:52.009Z,15.90
2022-10-26T03:43:19.007Z,16.60
2022-10-26T03:45:46.057Z,15.55
2022-10-26T03:48:13.285Z,15.35
2022-10-26T03:50:40.148Z,13.02
2022-10-26T03:53:06.956Z,14.45
2022-10-26T03:55:33.843Z,17.90
2022-10-26T03:58:00.622Z,11.80
2022-10-26T04:00:27.466Z,11.25
2022-10-26T04:02:59.304Z,17.73
2022-10-26T04:05:28.418Z,10.95
2022-10-26T04:08:00.390Z,17.67
2022-10-26T04:10:27.857Z,13.73
2022-10-26T04:12:55.558Z,14.30
2022-10-26T04:15:22.764Z,10.38
2022-10-26T04:17:55.991Z,19.30
2022-10-26T04:20:22.828Z,16.17
2022-10-26T04:22:59.289Z,13.05
2022-10-26T04:25:28.751Z,19.65
2022-10-26T04:27:59.649Z,18.98
2022-10-26T04:30:26.792Z,16.58
2022-10-26T04:32:53.774Z,12.15
2022-10-26T04:35:20.701Z,17.15
2022-10-26T04:37:47.717Z,18.08
2022-10-26T04:40:14.661Z,15.80
2022-10-26T04:42:46.842Z,13.07
2022-10-26T04:45:16.159Z,17.00
2022-10-26T04:47:43.306Z,14.73
2022-10-26T04:50:12.155Z,21.30
2022-10-26T04:52:38.957Z,16.65
2022-10-26T04:55:07.037Z,21.17
2022-10-26T04:57:34.801Z,17.60
2022-10-26T05:00:03.737Z,13.77
2022-10-26T05:02:30.810Z,14.15
2022-10-26T05:04:57.770Z,16.58
2022-10-26T05:07:24.659Z,16.23
2022-10-26T05:09:51.495Z,15.95
2022-10-26T05:12:18.345Z,14.80
2022-10-26T05:14:45.208Z,12.57
2022-10-26T05:17:12.030Z,13.48
2022-10-26T05:19:38.949Z,18.08
2022-10-26T05:22:05.825Z,13.05
2022-10-26T05:24:32.744Z,15.80
2022-10-26T05:26:59.626Z,15.25
2022-10-26T05:29:26.439Z,22.67
2022-10-26T05:31:53.333Z,14.77
2022-10-26T05:34:20.146Z,13.32
2022-10-26T05:36:46.980Z,15.10
2022-10-26T05:39:13.902Z,12.80
2022-10-26T05:41:40.733Z,13.48
2022-10-26T05:44:07.580Z,13.75
2022-10-26T05:46:34.428Z,15.60
2022-10-26T05:49:01.340Z,13.93
2022-10-26T05:51:28.157Z,16.05
2022-10-26T05:53:54.993Z,12.55
2022-10-26T05:56:35.379Z,12.10
2022-10-26T05:59:02.897Z,17.58
2022-10-26T06:01:50.210Z,14.18
2022-10-26T06:04:22.745Z,16.08
2022-10-26T06:06:54.690Z,12.98
2022-10-26T06:09:21.933Z,14.15
2022-10-26T06:14:17.164Z,14.85
2022-10-26T06:16:55.447Z,15.38
2022-10-26T06:19:28.046Z,13.70
2022-10-26T06:22:27.089Z,12.45
2022-10-26T06:25:20.062Z,14.27
2022-10-26T06:28:03.701Z,13.00
2022-10-26T06:30:30.592Z,23.67
2022-10-26T06:33:05.629Z,9.57
2022-10-26T06:35:55.306Z,12.45
2022-10-26T06:38:25.254Z,18.10
2022-10-26T06:40:55.548Z,15.85
2022-10-26T06:43:28.354Z,14.75
2022-10-26T06:46:07.678Z,10.35
2022-10-26T06:48:49.937Z,17.05
2022-10-26T06:51:18.265Z,13.65
2022-10-26T06:54:10.813Z,15.05
2022-10-26T06:56:37.921Z,13.43
2022-10-26T06:59:13.374Z,11.90
2022-10-26T07:01:40.445Z,11.10
2022-10-26T07:04:07.389Z,11.13
2022-10-26T07:06:36.833Z,10.40
2022-10-26T07:09:06.044Z,14.85
2022-10-26T07:11:32.873Z,16.17
2022-10-26T07:13:59.748Z,16.90
2022-10-26T07:16:28.003Z,15.45
2022-10-26T07:18:54.974Z,29.92
2022-10-26T07:21:21.864Z,15.50
2022-10-26T07:23:48.692Z,14.10
2022-10-26T07:26:15.574Z,14.13
2022-10-26T07:28:42.520Z,16.20
2022-10-26T07:31:09.393Z,18.85
2022-10-26T07:33:39.434Z,22.35
2022-10-26T07:36:11.022Z,17.50
2022-10-26T07:38:39.228Z,20.73
2022-10-26T07:41:06.619Z,21.40
2022-10-26T07:43:33.427Z,18.73
2022-10-26T07:46:00.272Z,13.63
2022-10-26T07:48:27.158Z,12.13
2022-10-26T07:50:54.080Z,16.52
2022-10-26T07:53:24.017Z,14.43
2022-10-26T07:55:58.807Z,22.92
2022-10-26T07:58:27.289Z,23.67
2022-10-26T08:00:54.234Z,14.60
2022-10-26T08:03:21.993Z,15.02
2022-10-26T08:05:51.448Z,17.25
2022-10-26T08:08:18.509Z,19.38
2022-10-26T08:10:46.297Z,17.75
2022-10-26T08:13:14.252Z,29.02
2022-10-26T08:15:41.451Z,17.80
2022-10-26T08:18:08.303Z,10.32
2022-10-26T08:20:35.162Z,14.65
2022-10-26T08:23:04.008Z,12.25
2022-10-26T08:25:30.893Z,11.55
2022-10-26T08:28:01.793Z,10.75
2022-10-26T08:30:29.972Z,14.27
2022-10-26T08:33:05.419Z,10.95
2022-10-26T08:35:33.057Z,10.20
2022-10-26T08:38:00.570Z,16.40
2022-10-26T08:40:31.657Z,17.10
2022-10-26T08:43:16.948Z,14.40
2022-10-26T08:45:50.859Z,14.10
2022-10-26T08:48:22.415Z,11.63
2022-10-26T08:50:54.644Z,12.38
2022-10-26T08:53:44.174Z,15.98
2022-10-26T08:56:26.173Z,9.57
2022-10-26T08:58:59.040Z,7.32
2022-10-26T09:01:26.006Z,10.52
2022-10-26T09:03:52.966Z,12.70
2022-10-26T09:06:35.137Z,14.55
2022-10-26T09:09:21.689Z,29.45
2022-10-26T09:12:09.610Z,19.15
2022-10-26T09:15:00.942Z,48.17
2022-10-26T09:17:38.437Z,10.88
2022-10-26T09:20:26.961Z,10.73
2022-10-26T09:23:14.781Z,6.72
2022-10-26T09:25:42.162Z,12.27
2022-10-26T09:28:17.903Z,7.72
2022-10-26T09:30:48.683Z,6.40
2022-10-26T09:33:26.600Z,9.63
2022-10-26T09:36:01.370Z,15.07
2022-10-26T09:38:53.157Z,11.00
2022-10-26T09:41:31.982Z,12.25
2022-10-26T09:44:18.605Z,11.40
2022-10-26T09:47:23.681Z,6.90
2022-10-26T09:49:58.304Z,7.32
2022-10-26T09:52:25.267Z,7.00
2022-10-26T09:54:52.088Z,7.65
2022-10-26T09:57:20.449Z,11.90
2022-10-26T09:59:48.180Z,8.27
2022-10-26T10:02:40.132Z,8.68
2022-10-26T10:05:50.208Z,21.45
2022-10-26T10:08:19.700Z,4.35
2022-10-26T10:11:14.351Z,12.15
2022-10-26T10:13:43.510Z,7.28
2022-10-26T10:16:23.988Z,5.20
2022-10-26T10:18:56.316Z,4.25
2022-10-26T10:21:44.519Z,4.20
2022-10-26T10:24:41.967Z,6.57
2022-10-26T10:27:17.598Z,7.20
2022-10-26T10:29:47.620Z,6.43
2022-10-26T10:32:22.364Z,8.00
2022-10-26T10:34:54.454Z,7.93
2022-10-26T10:37:30.900Z,9.27
2022-10-26T10:40:02.575Z,8.93
2022-10-26T10:42:41.101Z,8.30
2022-10-26T10:45:20.747Z,7.95
2022-10-26T10:48:20.739Z,7.38
2022-10-26T10:51:01.664Z,8.23
2022-10-26T10:53:37.422Z,7.22
2022-10-26T10:56:11.637Z,10.07
2022-10-26T10:58:41.481Z,5.25
2022-10-26T11:01:14.447Z,6.90
2022-10-26T11:04:16.985Z,6.40
2022-10-26T11:06:45.695Z,8.23
2022-10-26T11:09:17.215Z,8.38
2022-10-26T11:11:49.993Z,7.75
2022-10-26T11:14:35.516Z,8.80
2022-10-26T11:17:14.189Z,6.65
2022-10-26T11:19:54.481Z,7.82
2022-10-26T11:22:26.772Z,8.27
2022-10-26T11:24:59.721Z,6.30
2022-10-26T11:27:39.709Z,8.25
2022-10-26T11:30:15.081Z,5.72
2022-10-26T11:32:47.707Z,4.40
2022-10-26T11:35:19.719Z,5.95
2022-10-26T11:38:01.826Z,6.80
2022-10-26T11:40:45.794Z,6.10
2022-10-26T11:43:41.008Z,6.18
2022-10-26T11:46:19.115Z,5.15
2022-10-26T11:49:01.416Z,7.05
2022-10-26T11:51:50.917Z,8.35
2022-10-26T11:54:45.818Z,6.32
2022-10-26T11:57:13.002Z,4.40
2022-10-26T11:59:46.614Z,4.82
2022-10-26T12:05:20.458Z,8.30
2022-10-26T12:07:55.856Z,6.07
2022-10-26T12:10:32.460Z,7.45
2022-10-26T12:12:59.232Z,4.63
2022-10-26T12:16:03.147Z,6.68
2022-10-26T12:18:55.541Z,5.57
2022-10-26T12:21:27.635Z,8.75
2022-10-26T12:24:30.203Z,7.72
2022-10-26T12:27:04.144Z,6.22
2022-10-26T12:32:25.090Z,8.43
2022-10-26T12:34:51.875Z,8.25
2022-10-26T12:37:51.014Z,6.93
2022-10-26T12:40:33.234Z,9.52
2022-10-26T12:43:18.237Z,5.93
2022-10-26T12:45:47.025Z,5.82
2022-10-26T12:48:42.402Z,6.28
2022-10-26T12:51:27.109Z,5.97
2022-10-26T12:53:59.653Z,5.78
2022-10-26T12:56:42.565Z,4.38
2022-10-26T12:59:17.229Z,3.92
2022-10-26T13:02:12.090Z,5.60
2022-10-26T13:04:57.287Z,6.68
2022-10-26T13:07:26.504Z,6.93
2022-10-26T13:10:11.541Z,8.45
2022-10-26T13:12:56.475Z,6.30
2022-10-26T13:15:31.576Z,15.02
2022-10-26T13:18:02.625Z,4.40
2022-10-26T13:20:31.172Z,6.22
2022-10-26T13:22:58.805Z,7.47
2022-10-26T13:25:31.222Z,5.00
2022-10-26T13:28:31.740Z,7.63
2022-10-26T13:30:58.570Z,5.43
2022-10-26T13:33:41.002Z,8.65
2022-10-26T13:36:15.543Z,6.88
2022-10-26T13:38:43.094Z,6.95
2022-10-26T13:41:20.628Z,10.38
2022-10-26T13:43:48.649Z,7.90
2022-10-26T13:46:27.716Z,7.70
2022-10-26T13:49:01.461Z,7.65
2022-10-26T13:51:43.249Z,10.85
2022-10-26T13:54:36.945Z,6.45
2022-10-26T13:57:15.675Z,7.60
2022-10-26T13:59:45.715Z,8.25
2022-10-26T14:02:23.806Z,9.63
2022-10-26T14:05:00.324Z,7.10
2022-10-26T14:07:37.833Z,10.98
2022-10-26T14:10:05.172Z,8.13
2022-10-26T14:12:32.950Z,8.48
2022-10-26T14:15:07.573Z,9.40
2022-10-26T14:17:34.929Z,10.80
2022-10-26T14:20:04.212Z,8.30
2022-10-26T14:22:31.093Z,7.90
2022-10-26T14:24:59.890Z,9.45
2022-10-26T14:27:32.582Z,8.90
2022-10-26T14:30:21.707Z,11.45
2022-10-26T14:32:48.605Z,9.73
2022-10-26T14:35:16.209Z,10.05
2022-10-26T14:37:50.054Z,6.55
2022-10-26T14:40:20.820Z,7.72
2022-10-26T14:42:51.648Z,9.18
2022-10-26T14:45:55.112Z,8.30
2022-10-26T14:48:31.511Z,8.52
2022-10-26T14:51:16.338Z,9.20
2022-10-26T14:53:49.926Z,8.50
2022-10-26T14:56:46.470Z,8.05
2022-10-26T14:59:22.438Z,8.25
2022-10-26T15:01:50.749Z,9.50
2022-10-26T15:04:32.787Z,11.98
2022-10-26T15:07:07.873Z,10.98
2022-10-26T15:09:51.758Z,10.77
2022-10-26T15:27:36.945Z,8.25
2022-10-26T15:30:20.039Z,8.93
2022-10-26T15:32:47.377Z,9.75
2022-10-26T15:35:19.440Z,10.00
2022-10-26T15:37:47.363Z,11.35
2022-10-26T15:40:15.425Z,11.65
2022-10-26T15:42:45.407Z,9.20
2022-10-26T15:45:27.151Z,9.73
2022-10-26T15:47:57.718Z,10.60
2022-10-26T15:50:27.677Z,8.88
2022-10-26T15:53:01.613Z,12.27
2022-10-26T15:55:30.426Z,11.45
2022-10-26T15:57:57.289Z,8.30
2022-10-26T16:00:24.201Z,12.43
2022-10-26T16:02:51.020Z,13.60
2022-10-26T16:05:18.077Z,11.98
2022-10-26T16:07:47.920Z,13.30
2022-10-26T16:10:23.738Z,12.15
2022-10-26T16:12:51.249Z,10.93
2022-10-26T16:15:20.698Z,11.23
2022-10-26T16:17:49.156Z,12.38
2022-10-26T16:20:23.010Z,11.70
2022-10-26T16:22:52.471Z,12.98
2022-10-26T16:25:24.997Z,13.80
2022-10-26T16:27:54.334Z,12.68
2022-10-26T16:30:25.803Z,12.57
2022-10-26T16:32:54.061Z,12.55
2022-10-26T16:35:20.942Z,12.05
2022-10-26T16:37:47.929Z,15.60
2022-10-26T16:40:14.853Z,15.63
2022-10-26T16:42:44.023Z,12.45
2022-10-26T16:45:12.572Z,20.75
2022-10-26T16:47:40.293Z,19.08
2022-10-26T16:50:11.941Z,19.08
2022-10-26T16:52:39.642Z,20.23
2022-10-26T16:55:08.280Z,18.23
2022-10-26T16:57:36.549Z,14.45
2022-10-26T17:00:06.022Z,20.95
2022-10-26T17:02:33.179Z,15.63
2022-10-26T17:05:02.851Z,24.65
2022-10-26T17:07:32.897Z,21.80
2022-10-26T17:09:59.847Z,21.23
2022-10-26T17:15:00.700Z,18.30
2022-10-26T17:17:27.665Z,18.67
2022-10-26T17:19:54.601Z,13.23
2022-10-26T17:22:21.456Z,18.27
2022-10-26T17:24:48.304Z,16.95
2022-10-26T17:27:17.014Z,22.60
2022-10-26T17:29:43.874Z,16.17
2022-10-26T17:32:10.972Z,16.67
2022-10-26T17:34:37.897Z,18.58
2022-10-26T17:37:04.749Z,19.20
2022-10-26T17:39:31.566Z,19.77
2022-10-26T17:41:58.429Z,15.80
2022-10-26T17:44:25.470Z,12.93
2022-10-26T17:46:52.369Z,20.33
2022-10-26T17:49:22.267Z,15.93
2022-10-26T17:51:50.449Z,20.02
2022-10-26T17:56:49.024Z,13.73
2022-10-26T17:59:15.872Z,17.65
2022-10-26T18:01:43.526Z,17.33
2022-10-26T18:04:10.702Z,16.75
2022-10-26T18:06:37.574Z,21.05
2022-10-26T18:09:04.652Z,15.23
2022-10-26T18:14:03.570Z,19.42
2022-10-26T18:16:31.385Z,19.30
2022-10-26T18:19:04.487Z,17.67
2022-10-26T18:21:37.737Z,22.40
2022-10-26T18:24:05.913Z,19.97
2022-10-26T18:26:33.228Z,17.80
2022-10-26T18:29:01.990Z,16.95
2022-10-26T18:31:31.397Z,18.00
2022-10-26T18:34:03.291Z,19.50
2022-10-26T18:36:30.350Z,14.23
2022-10-26T18:38:57.878Z,19.20
2022-10-26T18:41:26.333Z,14.68
2022-10-26T18:43:56.634Z,13.82
2022-10-26T18:46:39.227Z,15.18
2022-10-26T18:49:06.408Z,12.23
2022-10-26T18:51:34.870Z,14.68
2022-10-26T18:54:02.252Z,15.73
2022-10-26T18:56:29.547Z,15.80
2022-10-26T18:58:58.834Z,16.52
2022-10-26T19:01:29.075Z,13.73
2022-10-26T19:03:58.728Z,17.40
2022-10-26T19:06:28.467Z,18.23
2022-10-26T19:08:56.184Z,13.25
2022-10-26T19:11:25.220Z,14.70
2022-10-26T19:13:55.163Z,15.98
2022-10-26T19:16:44.510Z,11.52
2022-10-26T19:19:11.692Z,13.02
2022-10-26T19:21:38.638Z,13.20
2022-10-26T19:24:12.079Z,14.18
2022-10-26T19:26:42.586Z,15.77
2022-10-26T19:29:16.015Z,17.50
2022-10-26T19:31:47.714Z,14.18
2022-10-26T19:34:15.944Z,11.32
2022-10-26T19:36:45.159Z,13.02
2022-10-26T19:39:14.187Z,12.10
2022-10-26T19:41:41.068Z,12.95
2022-10-26T19:44:08.004Z,12.95
2022-10-26T19:46:34.966Z,13.75
2022-10-26T19:49:02.509Z,12.30
2022-10-26T19:51:30.969Z,15.23
2022-10-26T19:54:03.173Z,12.77
2022-10-26T19:56:32.692Z,10.63
2022-10-26T19:58:59.646Z,10.13
2022-10-26T20:01:26.854Z,11.95
2022-10-26T20:03:53.927Z,8.40
2022-10-26T20:06:20.841Z,9.82
2022-10-26T20:08:49.188Z,11.63
2022-10-26T20:11:18.079Z,16.80
2022-10-26T20:13:46.386Z,9.27
2022-10-26T20:16:15.081Z,11.50
2022-10-26T20:18:45.753Z,8.60
2022-10-26T20:21:16.481Z,14.60
2022-10-26T20:23:44.274Z,15.77
2022-10-26T20:26:18.373Z,7.57
2022-10-26T20:28:48.196Z,12.40
2022-10-26T20:31:15.141Z,7.30
2022-10-26T20:33:42.485Z,9.15
2022-10-26T20:36:09.677Z,10.48
2022-10-26T20:38:36.887Z,7.20
2022-10-26T20:41:07.690Z,11.15
2022-10-26T20:43:39.441Z,9.38
2022-10-26T20:46:11.431Z,8.80
2022-10-26T20:48:38.901Z,11.15
2022-10-26T20:53:59.611Z,7.82
2022-10-26T20:56:26.970Z,9.38
2022-10-26T20:58:56.124Z,8.50
2022-10-26T21:01:27.799Z,9.88
2022-10-26T21:03:56.792Z,8.07
2022-10-26T21:06:24.987Z,11.80
2022-10-26T21:08:53.725Z,9.85
2022-10-26T21:11:21.925Z,11.68
2022-10-26T21:13:49.839Z,12.15
2022-10-26T21:16:17.953Z,9.32
2022-10-26T21:18:45.314Z,12.73
2022-10-26T21:21:12.445Z,10.38
2022-10-26T21:23:41.083Z,7.05
2022-10-26T21:26:09.110Z,9.30
2022-10-26T21:28:45.704Z,10.65
2022-10-26T21:31:15.129Z,8.63
2022-10-26T21:33:42.197Z,10.77
2022-10-26T21:36:14.177Z,11.20
2022-10-26T21:38:43.308Z,17.55
2022-10-26T21:41:18.071Z,7.53
2022-10-26T21:43:48.248Z,10.98
2022-10-26T21:46:16.854Z,10.35
2022-10-26T21:48:43.941Z,11.93
2022-10-26T21:51:17.060Z,9.73
2022-10-26T21:53:44.652Z,8.45
2022-10-26T21:56:14.492Z,12.82
2022-10-26T21:58:41.689Z,12.75
2022-10-26T22:01:11.338Z,14.52
2022-10-26T22:03:39.409Z,22.17
2022-10-26T22:06:08.493Z,19.20
2022-10-26T22:08:36.314Z,21.23
2022-10-26T22:11:15.574Z,22.23
2022-10-26T22:13:44.160Z,26.80
2022-10-26T22:16:13.617Z,25.83
2022-10-26T22:18:43.209Z,28.40
2022-10-26T22:21:11.109Z,31.30
2022-10-26T22:23:40.438Z,23.90
2022-10-26T22:26:18.870Z,25.50
2022-10-26T22:28:47.536Z,25.92
2022-10-26T22:31:17.726Z,23.05
2022-10-26T22:33:45.300Z,17.98
2022-10-26T22:36:15.275Z,16.17
2022-10-26T22:38:42.548Z,16.50
2022-10-26T22:41:10.417Z,17.55
2022-10-26T22:43:37.358Z,15.38
2022-10-26T22:46:05.905Z,14.88
2022-10-26T22:48:34.395Z,11.63
2022-10-26T22:51:06.494Z,11.52
2022-10-26T22:53:33.434Z,15.93
2022-10-26T22:58:45.496Z,10.95
2022-10-26T23:01:21.504Z,11.77
2022-10-26T23:03:48.954Z,12.02
2022-10-26T23:06:18.917Z,10.35
2022-10-26T23:08:49.645Z,15.05
2022-10-26T23:11:19.061Z,14.68
2022-10-26T23:13:46.041Z,14.50
2022-10-26T23:16:17.782Z,17.40
2022-10-26T23:18:45.144Z,15.50
2022-10-26T23:21:14.454Z,15.00
2022-10-26T23:23:48.133Z,17.25
2022-10-26T23:26:18.103Z,19.58
2022-10-26T23:28:47.950Z,17.27
2022-10-26T23:31:20.286Z,16.27
2022-10-26T23:33:51.561Z,15.23
2022-10-26T23:36:19.076Z,16.48
2022-10-26T23:38:46.747Z,17.38
2022-10-26T23:41:13.791Z,16.95
2022-10-26T23:43:40.850Z,18.17
2022-10-26T23:46:07.923Z,16.95
2022-10-26T23:48:34.754Z,16.08
2022-10-26T23:51:01.607Z,13.30
2022-10-26T23:53:28.595Z,15.15
2022-10-26T23:55:55.578Z,17.38
2022-10-26T23:58:22.532Z,16.58
